sensor_id;sensor_type;location;lat;lon;timestamp;P1;durP1;ratioP1;P2;durP2;ratioP2
75426;SDS011;64007;50.632;13.700;2023-11-19T00:00:42;17.02;;;8.75;;
75426;SDS011;64007;50.632;13.700;2023-11-19T00:03:28;21.45;;;8.73;;
75426;SDS011;64007;50.632;13.700;2023-11-19T00:05:54;15.95;;;8.45;;
75426;SDS011;64007;50.632;13.700;2023-11-19T00:08:21;16.95;;;9.13;;
75426;SDS011;64007;50.632;13.700;2023-11-19T00:10:47;24.10;;;10.13;;
75426;SDS011;64007;50.632;13.700;2023-11-19T00:13:12;26.65;;;11.55;;
75426;SDS011;64007;50.632;13.700;2023-11-19T00:15:38;27.42;;;11.95;;
75426;SDS011;64007;50.632;13.700;2023-11-19T00:18:04;25.75;;;11.60;;
75426;SDS011;64007;50.632;13.700;2023-11-19T00:20:29;23.75;;;10.02;;
75426;SDS011;64007;50.632;13.700;2023-11-19T00:22:56;25.30;;;9.93;;
75426;SDS011;64007;50.632;13.700;2023-11-19T00:25:21;21.23;;;10.15;;
75426;SDS011;64007;50.632;13.700;2023-11-19T00:27:47;23.02;;;10.23;;
75426;SDS011;64007;50.632;13.700;2023-11-19T00:30:13;22.55;;;10.13;;
75426;SDS011;64007;50.632;13.700;2023-11-19T00:32:40;19.20;;;9.77;;
75426;SDS011;64007;50.632;13.700;2023-11-19T00:35:06;19.98;;;9.32;;
75426;SDS011;64007;50.632;13.700;2023-11-19T00:37:33;22.67;;;10.02;;
75426;SDS011;64007;50.632;13.700;2023-11-19T00:39:59;18.75;;;9.45;;
75426;SDS011;64007;50.632;13.700;2023-11-19T00:42:25;20.42;;;10.10;;
75426;SDS011;64007;50.632;13.700;2023-11-19T00:44:51;20.30;;;9.93;;
75426;SDS011;64007;50.632;13.700;2023-11-19T00:47:17;15.95;;;9.27;;
75426;SDS011;64007;50.632;13.700;2023-11-19T00:49:46;17.08;;;9.45;;
75426;SDS011;64007;50.632;13.700;2023-11-19T00:52:15;21.15;;;9.13;;
75426;SDS011;64007;50.632;13.700;2023-11-19T00:54:42;24.77;;;9.70;;
75426;SDS011;64007;50.632;13.700;2023-11-19T00:57:08;21.60;;;9.32;;
75426;SDS011;64007;50.632;13.700;2023-11-19T00:59:33;21.05;;;10.32;;
75426;SDS011;64007;50.632;13.700;2023-11-19T01:01:59;20.48;;;8.68;;
75426;SDS011;64007;50.632;13.700;2023-11-19T01:04:33;15.45;;;7.35;;
75426;SDS011;64007;50.632;13.700;2023-11-19T01:07:03;21.42;;;8.52;;
75426;SDS011;64007;50.632;13.700;2023-11-19T01:09:33;17.58;;;8.32;;
75426;SDS011;64007;50.632;13.700;2023-11-19T01:12:00;13.70;;;7.20;;
75426;SDS011;64007;50.632;13.700;2023-11-19T01:14:27;11.32;;;6.30;;
75426;SDS011;64007;50.632;13.700;2023-11-19T01:16:54;12.68;;;6.15;;
75426;SDS011;64007;50.632;13.700;2023-11-19T01:19:20;9.70;;;6.28;;
75426;SDS011;64007;50.632;13.700;2023-11-19T01:21:48;15.57;;;6.60;;
75426;SDS011;64007;50.632;13.700;2023-11-19T01:24:14;17.77;;;9.48;;
75426;SDS011;64007;50.632;13.700;2023-11-19T01:26:40;13.07;;;6.55;;
75426;SDS011;64007;50.632;13.700;2023-11-19T01:29:13;14.15;;;7.25;;
75426;SDS011;64007;50.632;13.700;2023-11-19T01:31:42;21.33;;;9.70;;
75426;SDS011;64007;50.632;13.700;2023-11-19T01:34:08;15.98;;;9.07;;
75426;SDS011;64007;50.632;13.700;2023-11-19T01:36:34;13.27;;;6.72;;
75426;SDS011;64007;50.632;13.700;2023-11-19T01:39:00;14.70;;;5.78;;
75426;SDS011;64007;50.632;13.700;2023-11-19T01:41:26;9.32;;;5.95;;
75426;SDS011;64007;50.632;13.700;2023-11-19T01:43:51;14.65;;;6.75;;
75426;SDS011;64007;50.632;13.700;2023-11-19T01:46:17;13.82;;;7.95;;
75426;SDS011;64007;50.632;13.700;2023-11-19T01:48:44;13.40;;;6.97;;
75426;SDS011;64007;50.632;13.700;2023-11-19T01:51:12;10.15;;;6.72;;
75426;SDS011;64007;50.632;13.700;2023-11-19T01:53:41;13.98;;;7.03;;
75426;SDS011;64007;50.632;13.700;2023-11-19T01:56:09;11.02;;;7.13;;
75426;SDS011;64007;50.632;13.700;2023-11-19T01:58:37;12.98;;;6.90;;
75426;SDS011;64007;50.632;13.700;2023-11-19T02:01:07;11.50;;;6.60;;
75426;SDS011;64007;50.632;13.700;2023-11-19T02:03:34;11.00;;;6.72;;
75426;SDS011;64007;50.632;13.700;2023-11-19T02:06:00;15.13;;;6.45;;
75426;SDS011;64007;50.632;13.700;2023-11-19T02:08:26;13.40;;;6.95;;
75426;SDS011;64007;50.632;13.700;2023-11-19T02:10:52;12.65;;;6.70;;
75426;SDS011;64007;50.632;13.700;2023-11-19T02:13:18;12.38;;;6.47;;
75426;SDS011;64007;50.632;13.700;2023-11-19T02:15:44;13.52;;;7.43;;
75426;SDS011;64007;50.632;13.700;2023-11-19T02:20:48;13.18;;;6.78;;
75426;SDS011;64007;50.632;13.700;2023-11-19T02:23:14;12.07;;;6.60;;
75426;SDS011;64007;50.632;13.700;2023-11-19T02:25:41;14.48;;;7.07;;
75426;SDS011;64007;50.632;13.700;2023-11-19T02:28:07;14.98;;;6.68;;
75426;SDS011;64007;50.632;13.700;2023-11-19T02:30:36;9.73;;;5.80;;
75426;SDS011;64007;50.632;13.700;2023-11-19T02:33:01;13.57;;;6.55;;
75426;SDS011;64007;50.632;13.700;2023-11-19T02:35:31;9.70;;;5.85;;
75426;SDS011;64007;50.632;13.700;2023-11-19T02:37:58;15.10;;;7.45;;
75426;SDS011;64007;50.632;13.700;2023-11-19T02:40:29;10.48;;;5.90;;
75426;SDS011;64007;50.632;13.700;2023-11-19T02:42:55;13.18;;;6.03;;
75426;SDS011;64007;50.632;13.700;2023-11-19T02:45:22;12.70;;;6.75;;
75426;SDS011;64007;50.632;13.700;2023-11-19T02:47:48;16.88;;;8.23;;
75426;SDS011;64007;50.632;13.700;2023-11-19T02:50:14;13.55;;;7.60;;
75426;SDS011;64007;50.632;13.700;2023-11-19T02:52:41;20.77;;;8.95;;
75426;SDS011;64007;50.632;13.700;2023-11-19T02:55:11;13.23;;;6.43;;
75426;SDS011;64007;50.632;13.700;2023-11-19T02:57:38;7.75;;;4.97;;
75426;SDS011;64007;50.632;13.700;2023-11-19T03:00:15;9.48;;;4.75;;
75426;SDS011;64007;50.632;13.700;2023-11-19T03:02:42;11.48;;;5.55;;
75426;SDS011;64007;50.632;13.700;2023-11-19T03:05:13;8.40;;;5.50;;
75426;SDS011;64007;50.632;13.700;2023-11-19T03:07:42;10.50;;;5.78;;
75426;SDS011;64007;50.632;13.700;2023-11-19T03:10:12;14.73;;;7.80;;
75426;SDS011;64007;50.632;13.700;2023-11-19T03:12:41;16.02;;;7.60;;
75426;SDS011;64007;50.632;13.700;2023-11-19T03:15:08;13.80;;;7.88;;
75426;SDS011;64007;50.632;13.700;2023-11-19T03:17:40;13.02;;;7.18;;
75426;SDS011;64007;50.632;13.700;2023-11-19T03:20:08;14.38;;;7.28;;
75426;SDS011;64007;50.632;13.700;2023-11-19T03:22:36;16.95;;;8.15;;
75426;SDS011;64007;50.632;13.700;2023-11-19T03:25:02;11.38;;;6.93;;
75426;SDS011;64007;50.632;13.700;2023-11-19T03:27:28;12.35;;;6.75;;
75426;SDS011;64007;50.632;13.700;2023-11-19T03:29:54;13.98;;;6.70;;
75426;SDS011;64007;50.632;13.700;2023-11-19T03:32:19;10.32;;;6.22;;
75426;SDS011;64007;50.632;13.700;2023-11-19T03:34:45;10.18;;;5.63;;
75426;SDS011;64007;50.632;13.700;2023-11-19T03:37:11;8.20;;;5.35;;
75426;SDS011;64007;50.632;13.700;2023-11-19T03:39:37;10.90;;;6.30;;
75426;SDS011;64007;50.632;13.700;2023-11-19T03:42:02;10.40;;;6.30;;
75426;SDS011;64007;50.632;13.700;2023-11-19T03:44:29;9.45;;;5.55;;
75426;SDS011;64007;50.632;13.700;2023-11-19T03:46:54;9.70;;;5.65;;
75426;SDS011;64007;50.632;13.700;2023-11-19T03:49:20;11.20;;;5.65;;
75426;SDS011;64007;50.632;13.700;2023-11-19T03:51:45;10.45;;;5.72;;
75426;SDS011;64007;50.632;13.700;2023-11-19T03:54:12;8.65;;;5.25;;
75426;SDS011;64007;50.632;13.700;2023-11-19T03:56:38;10.43;;;4.97;;
75426;SDS011;64007;50.632;13.700;2023-11-19T03:59:04;11.15;;;5.30;;
75426;SDS011;64007;50.632;13.700;2023-11-19T04:01:29;9.95;;;5.18;;
75426;SDS011;64007;50.632;13.700;2023-11-19T04:03:55;9.80;;;4.40;;
75426;SDS011;64007;50.632;13.700;2023-11-19T04:06:21;8.35;;;4.57;;
75426;SDS011;64007;50.632;13.700;2023-11-19T04:08:47;9.18;;;4.82;;
75426;SDS011;64007;50.632;13.700;2023-11-19T04:11:13;7.72;;;4.78;;
75426;SDS011;64007;50.632;13.700;2023-11-19T04:13:38;8.38;;;4.82;;
75426;SDS011;64007;50.632;13.700;2023-11-19T04:16:04;7.93;;;4.85;;
75426;SDS011;64007;50.632;13.700;2023-11-19T04:18:30;8.85;;;4.30;;
75426;SDS011;64007;50.632;13.700;2023-11-19T04:20:57;8.48;;;4.70;;
75426;SDS011;64007;50.632;13.700;2023-11-19T04:23:23;10.68;;;4.78;;
75426;SDS011;64007;50.632;13.700;2023-11-19T04:25:50;7.32;;;4.25;;
75426;SDS011;64007;50.632;13.700;2023-11-19T04:28:16;7.65;;;4.32;;
75426;SDS011;64007;50.632;13.700;2023-11-19T04:30:41;17.80;;;8.23;;
75426;SDS011;64007;50.632;13.700;2023-11-19T04:33:07;11.20;;;5.35;;
75426;SDS011;64007;50.632;13.700;2023-11-19T04:35:33;8.10;;;4.80;;
75426;SDS011;64007;50.632;13.700;2023-11-19T04:37:58;7.70;;;4.53;;
75426;SDS011;64007;50.632;13.700;2023-11-19T04:40:24;8.80;;;4.50;;
75426;SDS011;64007;50.632;13.700;2023-11-19T04:42:50;8.07;;;4.32;;
75426;SDS011;64007;50.632;13.700;2023-11-19T04:45:16;8.52;;;4.63;;
75426;SDS011;64007;50.632;13.700;2023-11-19T04:47:42;6.65;;;4.30;;
75426;SDS011;64007;50.632;13.700;2023-11-19T04:50:08;6.53;;;4.43;;
75426;SDS011;64007;50.632;13.700;2023-11-19T04:52:38;9.40;;;4.50;;
75426;SDS011;64007;50.632;13.700;2023-11-19T04:55:10;7.38;;;4.50;;
75426;SDS011;64007;50.632;13.700;2023-11-19T04:57:37;5.60;;;3.72;;
75426;SDS011;64007;50.632;13.700;2023-11-19T05:00:03;5.68;;;4.25;;
75426;SDS011;64007;50.632;13.700;2023-11-19T05:02:30;7.50;;;4.40;;
75426;SDS011;64007;50.632;13.700;2023-11-19T05:04:56;9.18;;;4.97;;
75426;SDS011;64007;50.632;13.700;2023-11-19T05:07:22;7.95;;;4.35;;
75426;SDS011;64007;50.632;13.700;2023-11-19T05:09:47;7.38;;;4.80;;
75426;SDS011;64007;50.632;13.700;2023-11-19T05:12:13;8.77;;;5.00;;
75426;SDS011;64007;50.632;13.700;2023-11-19T05:14:39;7.07;;;4.40;;
75426;SDS011;64007;50.632;13.700;2023-11-19T05:17:05;9.38;;;4.50;;
75426;SDS011;64007;50.632;13.700;2023-11-19T05:19:30;6.70;;;4.25;;
75426;SDS011;64007;50.632;13.700;2023-11-19T05:21:57;7.65;;;4.20;;
75426;SDS011;64007;50.632;13.700;2023-11-19T05:24:22;5.47;;;3.83;;
75426;SDS011;64007;50.632;13.700;2023-11-19T05:26:48;9.73;;;3.88;;
75426;SDS011;64007;50.632;13.700;2023-11-19T05:29:15;5.97;;;3.60;;
75426;SDS011;64007;50.632;13.700;2023-11-19T05:31:41;5.20;;;3.35;;
75426;SDS011;64007;50.632;13.700;2023-11-19T05:34:06;4.85;;;2.88;;
75426;SDS011;64007;50.632;13.700;2023-11-19T05:36:32;4.43;;;2.78;;
75426;SDS011;64007;50.632;13.700;2023-11-19T05:38:58;5.10;;;3.30;;
75426;SDS011;64007;50.632;13.700;2023-11-19T05:41:24;4.78;;;2.90;;
75426;SDS011;64007;50.632;13.700;2023-11-19T05:43:49;4.85;;;2.67;;
75426;SDS011;64007;50.632;13.700;2023-11-19T05:46:16;6.03;;;2.90;;
75426;SDS011;64007;50.632;13.700;2023-11-19T05:48:41;5.18;;;3.10;;
75426;SDS011;64007;50.632;13.700;2023-11-19T05:51:08;6.05;;;3.33;;
75426;SDS011;64007;50.632;13.700;2023-11-19T05:53:33;5.43;;;2.97;;
75426;SDS011;64007;50.632;13.700;2023-11-19T05:55:59;4.50;;;2.63;;
75426;SDS011;64007;50.632;13.700;2023-11-19T05:58:29;5.07;;;2.85;;
75426;SDS011;64007;50.632;13.700;2023-11-19T06:00:56;3.92;;;2.45;;
75426;SDS011;64007;50.632;13.700;2023-11-19T06:03:22;3.72;;;2.50;;
75426;SDS011;64007;50.632;13.700;2023-11-19T06:05:48;5.43;;;2.70;;
75426;SDS011;64007;50.632;13.700;2023-11-19T06:08:14;4.65;;;2.55;;
75426;SDS011;64007;50.632;13.700;2023-11-19T06:10:40;5.57;;;2.40;;
75426;SDS011;64007;50.632;13.700;2023-11-19T06:13:06;4.60;;;2.50;;
75426;SDS011;64007;50.632;13.700;2023-11-19T06:15:35;5.38;;;2.92;;
75426;SDS011;64007;50.632;13.700;2023-11-19T06:18:01;5.38;;;3.10;;
75426;SDS011;64007;50.632;13.700;2023-11-19T06:20:32;5.18;;;2.72;;
75426;SDS011;64007;50.632;13.700;2023-11-19T06:22:58;4.85;;;2.80;;
75426;SDS011;64007;50.632;13.700;2023-11-19T06:25:25;5.32;;;2.60;;
75426;SDS011;64007;50.632;13.700;2023-11-19T06:27:51;4.60;;;2.40;;
75426;SDS011;64007;50.632;13.700;2023-11-19T06:30:17;8.57;;;3.05;;
75426;SDS011;64007;50.632;13.700;2023-11-19T06:32:43;8.82;;;3.45;;
75426;SDS011;64007;50.632;13.700;2023-11-19T06:35:09;9.63;;;3.22;;
75426;SDS011;64007;50.632;13.700;2023-11-19T06:37:35;5.72;;;2.88;;
75426;SDS011;64007;50.632;13.700;2023-11-19T06:40:02;5.43;;;2.70;;
75426;SDS011;64007;50.632;13.700;2023-11-19T06:42:30;6.10;;;3.08;;
75426;SDS011;64007;50.632;13.700;2023-11-19T06:44:56;6.50;;;3.50;;
75426;SDS011;64007;50.632;13.700;2023-11-19T06:47:25;10.55;;;6.07;;
75426;SDS011;64007;50.632;13.700;2023-11-19T06:49:52;12.48;;;6.22;;
75426;SDS011;64007;50.632;13.700;2023-11-19T06:52:18;10.40;;;5.22;;
75426;SDS011;64007;50.632;13.700;2023-11-19T06:54:44;9.00;;;5.60;;
75426;SDS011;64007;50.632;13.700;2023-11-19T06:57:13;9.70;;;5.57;;
75426;SDS011;64007;50.632;13.700;2023-11-19T06:59:39;9.32;;;5.25;;
75426;SDS011;64007;50.632;13.700;2023-11-19T07:02:06;8.60;;;5.18;;
75426;SDS011;64007;50.632;13.700;2023-11-19T07:04:32;8.85;;;5.22;;
75426;SDS011;64007;50.632;13.700;2023-11-19T07:06:58;7.82;;;4.75;;
75426;SDS011;64007;50.632;13.700;2023-11-19T07:09:25;8.60;;;5.32;;
75426;SDS011;64007;50.632;13.700;2023-11-19T07:11:51;9.75;;;5.70;;
75426;SDS011;64007;50.632;13.700;2023-11-19T07:14:20;10.43;;;5.85;;
75426;SDS011;64007;50.632;13.700;2023-11-19T07:16:45;11.50;;;5.07;;
75426;SDS011;64007;50.632;13.700;2023-11-19T07:19:15;9.27;;;5.35;;
75426;SDS011;64007;50.632;13.700;2023-11-19T07:21:41;10.13;;;5.93;;
75426;SDS011;64007;50.632;13.700;2023-11-19T07:24:10;8.48;;;5.65;;
75426;SDS011;64007;50.632;13.700;2023-11-19T07:26:41;23.58;;;9.23;;
75426;SDS011;64007;50.632;13.700;2023-11-19T07:29:09;56.00;;;21.52;;
75426;SDS011;64007;50.632;13.700;2023-11-19T07:31:34;34.58;;;15.40;;
75426;SDS011;64007;50.632;13.700;2023-11-19T07:34:00;27.20;;;12.32;;
75426;SDS011;64007;50.632;13.700;2023-11-19T07:36:26;19.70;;;10.40;;
75426;SDS011;64007;50.632;13.700;2023-11-19T07:38:52;22.02;;;9.80;;
75426;SDS011;64007;50.632;13.700;2023-11-19T07:41:18;26.85;;;11.25;;
75426;SDS011;64007;50.632;13.700;2023-11-19T07:43:45;23.00;;;12.32;;
75426;SDS011;64007;50.632;13.700;2023-11-19T07:46:14;32.80;;;14.30;;
75426;SDS011;64007;50.632;13.700;2023-11-19T07:48:40;26.13;;;13.73;;
75426;SDS011;64007;50.632;13.700;2023-11-19T07:51:07;26.50;;;13.25;;
75426;SDS011;64007;50.632;13.700;2023-11-19T07:53:33;22.80;;;11.00;;
75426;SDS011;64007;50.632;13.700;2023-11-19T07:55:59;18.88;;;10.07;;
75426;SDS011;64007;50.632;13.700;2023-11-19T07:58:26;20.92;;;9.45;;
75426;SDS011;64007;50.632;13.700;2023-11-19T08:00:51;22.08;;;9.70;;
75426;SDS011;64007;50.632;13.700;2023-11-19T08:03:17;23.85;;;10.50;;
75426;SDS011;64007;50.632;13.700;2023-11-19T08:05:44;18.35;;;8.90;;
75426;SDS011;64007;50.632;13.700;2023-11-19T08:08:12;15.65;;;7.72;;
75426;SDS011;64007;50.632;13.700;2023-11-19T08:10:37;13.77;;;7.18;;
75426;SDS011;64007;50.632;13.700;2023-11-19T08:13:04;16.42;;;6.68;;
75426;SDS011;64007;50.632;13.700;2023-11-19T08:15:29;14.25;;;6.70;;
75426;SDS011;64007;50.632;13.700;2023-11-19T08:17:55;12.85;;;6.30;;
75426;SDS011;64007;50.632;13.700;2023-11-19T08:20:21;13.23;;;5.85;;
75426;SDS011;64007;50.632;13.700;2023-11-19T08:22:47;10.55;;;6.00;;
75426;SDS011;64007;50.632;13.700;2023-11-19T08:25:13;12.25;;;5.78;;
75426;SDS011;64007;50.632;13.700;2023-11-19T08:27:39;9.45;;;5.18;;
75426;SDS011;64007;50.632;13.700;2023-11-19T08:30:05;11.40;;;6.25;;
75426;SDS011;64007;50.632;13.700;2023-11-19T08:32:34;9.90;;;4.97;;
75426;SDS011;64007;50.632;13.700;2023-11-19T08:35:00;10.52;;;4.90;;
75426;SDS011;64007;50.632;13.700;2023-11-19T08:37:25;6.35;;;3.83;;
75426;SDS011;64007;50.632;13.700;2023-11-19T08:39:51;9.65;;;4.10;;
75426;SDS011;64007;50.632;13.700;2023-11-19T08:42:17;8.85;;;4.88;;
75426;SDS011;64007;50.632;13.700;2023-11-19T08:44:43;7.22;;;4.22;;
75426;SDS011;64007;50.632;13.700;2023-11-19T08:47:09;6.97;;;4.20;;
75426;SDS011;64007;50.632;13.700;2023-11-19T08:49:36;7.55;;;4.45;;
75426;SDS011;64007;50.632;13.700;2023-11-19T08:52:02;6.95;;;3.67;;
75426;SDS011;64007;50.632;13.700;2023-11-19T08:54:27;8.23;;;4.25;;
75426;SDS011;64007;50.632;13.700;2023-11-19T08:56:53;10.68;;;5.25;;
75426;SDS011;64007;50.632;13.700;2023-11-19T08:59:19;9.25;;;5.43;;
75426;SDS011;64007;50.632;13.700;2023-11-19T09:01:45;11.55;;;5.57;;
75426;SDS011;64007;50.632;13.700;2023-11-19T09:04:11;14.15;;;6.60;;
75426;SDS011;64007;50.632;13.700;2023-11-19T09:06:37;12.32;;;6.40;;
75426;SDS011;64007;50.632;13.700;2023-11-19T09:09:02;9.88;;;5.25;;
75426;SDS011;64007;50.632;13.700;2023-11-19T09:11:31;14.93;;;6.75;;
75426;SDS011;64007;50.632;13.700;2023-11-19T09:13:57;23.85;;;9.52;;
75426;SDS011;64007;50.632;13.700;2023-11-19T09:16:23;22.38;;;9.60;;
75426;SDS011;64007;50.632;13.700;2023-11-19T09:18:49;17.35;;;7.95;;
75426;SDS011;64007;50.632;13.700;2023-11-19T09:21:15;17.05;;;7.78;;
75426;SDS011;64007;50.632;13.700;2023-11-19T09:23:40;13.48;;;6.82;;
75426;SDS011;64007;50.632;13.700;2023-11-19T09:26:10;9.52;;;5.40;;
75426;SDS011;64007;50.632;13.700;2023-11-19T09:28:35;9.55;;;5.22;;
75426;SDS011;64007;50.632;13.700;2023-11-19T09:31:01;9.52;;;4.90;;
75426;SDS011;64007;50.632;13.700;2023-11-19T09:33:30;8.95;;;4.53;;
75426;SDS011;64007;50.632;13.700;2023-11-19T09:35:56;6.88;;;3.88;;
75426;SDS011;64007;50.632;13.700;2023-11-19T09:38:23;6.00;;;3.40;;
75426;SDS011;64007;50.632;13.700;2023-11-19T09:40:48;4.20;;;2.72;;
75426;SDS011;64007;50.632;13.700;2023-11-19T09:43:15;3.85;;;2.38;;
75426;SDS011;64007;50.632;13.700;2023-11-19T09:45:50;4.03;;;2.50;;
75426;SDS011;64007;50.632;13.700;2023-11-19T09:48:16;3.65;;;2.45;;
75426;SDS011;64007;50.632;13.700;2023-11-19T09:50:46;6.95;;;2.35;;
75426;SDS011;64007;50.632;13.700;2023-11-19T09:53:13;4.75;;;2.70;;
75426;SDS011;64007;50.632;13.700;2023-11-19T09:55:39;7.22;;;3.35;;
75426;SDS011;64007;50.632;13.700;2023-11-19T09:58:06;7.13;;;3.90;;
75426;SDS011;64007;50.632;13.700;2023-11-19T10:00:33;7.63;;;4.40;;
75426;SDS011;64007;50.632;13.700;2023-11-19T10:02:59;7.03;;;4.03;;
75426;SDS011;64007;50.632;13.700;2023-11-19T10:05:25;7.45;;;4.40;;
75426;SDS011;64007;50.632;13.700;2023-11-19T10:07:52;7.00;;;3.90;;
75426;SDS011;64007;50.632;13.700;2023-11-19T10:10:18;6.18;;;3.78;;
75426;SDS011;64007;50.632;13.700;2023-11-19T10:12:47;6.68;;;3.90;;
75426;SDS011;64007;50.632;13.700;2023-11-19T10:15:20;10.10;;;5.43;;
75426;SDS011;64007;50.632;13.700;2023-11-19T10:17:47;8.50;;;5.10;;
75426;SDS011;64007;50.632;13.700;2023-11-19T10:20:14;10.30;;;6.32;;
75426;SDS011;64007;50.632;13.700;2023-11-19T10:22:39;18.52;;;7.70;;
75426;SDS011;64007;50.632;13.700;2023-11-19T10:25:21;18.98;;;8.30;;
75426;SDS011;64007;50.632;13.700;2023-11-19T10:27:56;14.52;;;7.30;;
75426;SDS011;64007;50.632;13.700;2023-11-19T10:30:24;10.40;;;5.63;;
75426;SDS011;64007;50.632;13.700;2023-11-19T10:33:33;11.35;;;5.00;;
75426;SDS011;64007;50.632;13.700;2023-11-19T10:35:55;9.00;;;4.85;;
75426;SDS011;64007;50.632;13.700;2023-11-19T10:38:23;14.40;;;5.70;;
75426;SDS011;64007;50.632;13.700;2023-11-19T10:40:50;15.38;;;5.38;;
75426;SDS011;64007;50.632;13.700;2023-11-19T10:43:16;7.15;;;4.95;;
75426;SDS011;64007;50.632;13.700;2023-11-19T10:45:42;10.55;;;5.22;;
75426;SDS011;64007;50.632;13.700;2023-11-19T10:48:08;9.05;;;5.20;;
75426;SDS011;64007;50.632;13.700;2023-11-19T10:50:36;10.32;;;5.47;;
75426;SDS011;64007;50.632;13.700;2023-11-19T10:53:03;9.63;;;5.22;;
75426;SDS011;64007;50.632;13.700;2023-11-19T10:55:30;9.88;;;5.90;;
75426;SDS011;64007;50.632;13.700;2023-11-19T10:57:58;13.32;;;5.78;;
75426;SDS011;64007;50.632;13.700;2023-11-19T11:00:26;10.70;;;6.47;;
75426;SDS011;64007;50.632;13.700;2023-11-19T11:02:56;11.95;;;7.18;;
75426;SDS011;64007;50.632;13.700;2023-11-19T11:05:27;13.40;;;7.97;;
75426;SDS011;64007;50.632;13.700;2023-11-19T11:07:55;16.33;;;6.75;;
75426;SDS011;64007;50.632;13.700;2023-11-19T11:10:21;14.07;;;8.15;;
75426;SDS011;64007;50.632;13.700;2023-11-19T11:12:52;14.82;;;8.20;;
75426;SDS011;64007;50.632;13.700;2023-11-19T11:15:27;16.67;;;9.77;;
75426;SDS011;64007;50.632;13.700;2023-11-19T11:17:59;18.60;;;8.95;;
75426;SDS011;64007;50.632;13.700;2023-11-19T11:20:30;16.98;;;8.38;;
75426;SDS011;64007;50.632;13.700;2023-11-19T11:28:58;16.35;;;8.50;;
75426;SDS011;64007;50.632;13.700;2023-11-19T11:34:41;18.15;;;9.15;;
75426;SDS011;64007;50.632;13.700;2023-11-19T11:40:04;25.63;;;13.35;;
75426;SDS011;64007;50.632;13.700;2023-11-19T11:42:37;29.02;;;15.20;;
75426;SDS011;64007;50.632;13.700;2023-11-19T11:45:04;31.95;;;15.90;;
75426;SDS011;64007;50.632;13.700;2023-11-19T11:50:16;34.33;;;16.50;;
75426;SDS011;64007;50.632;13.700;2023-11-19T11:58:35;22.35;;;11.52;;
75426;SDS011;64007;50.632;13.700;2023-11-19T12:01:03;18.15;;;9.80;;
75426;SDS011;64007;50.632;13.700;2023-11-19T12:03:31;19.63;;;9.95;;
75426;SDS011;64007;50.632;13.700;2023-11-19T12:06:06;15.82;;;8.80;;
75426;SDS011;64007;50.632;13.700;2023-11-19T12:08:36;16.90;;;8.43;;
75426;SDS011;64007;50.632;13.700;2023-11-19T12:11:04;30.30;;;9.88;;
75426;SDS011;64007;50.632;13.700;2023-11-19T12:13:47;18.25;;;9.27;;
75426;SDS011;64007;50.632;13.700;2023-11-19T12:16:27;17.48;;;9.48;;
75426;SDS011;64007;50.632;13.700;2023-11-19T12:18:54;17.95;;;10.13;;
75426;SDS011;64007;50.632;13.700;2023-11-19T12:21:30;20.17;;;10.73;;
75426;SDS011;64007;50.632;13.700;2023-11-19T12:23:57;21.92;;;11.27;;
75426;SDS011;64007;50.632;13.700;2023-11-19T12:26:34;22.58;;;11.10;;
75426;SDS011;64007;50.632;13.700;2023-11-19T12:29:02;29.08;;;12.15;;
75426;SDS011;64007;50.632;13.700;2023-11-19T12:31:31;19.95;;;11.60;;
75426;SDS011;64007;50.632;13.700;2023-11-19T12:33:57;23.65;;;12.05;;
75426;SDS011;64007;50.632;13.700;2023-11-19T12:36:23;22.83;;;12.30;;
75426;SDS011;64007;50.632;13.700;2023-11-19T12:38:49;24.83;;;11.90;;
75426;SDS011;64007;50.632;13.700;2023-11-19T12:41:16;24.77;;;12.18;;
75426;SDS011;64007;50.632;13.700;2023-11-19T12:43:46;22.25;;;12.70;;
75426;SDS011;64007;50.632;13.700;2023-11-19T12:48:47;25.35;;;12.32;;
75426;SDS011;64007;50.632;13.700;2023-11-19T12:51:14;28.02;;;12.10;;
75426;SDS011;64007;50.632;13.700;2023-11-19T12:53:49;28.80;;;12.98;;
75426;SDS011;64007;50.632;13.700;2023-11-19T12:56:23;23.92;;;12.15;;
75426;SDS011;64007;50.632;13.700;2023-11-19T12:58:49;25.50;;;12.68;;
75426;SDS011;64007;50.632;13.700;2023-11-19T13:01:19;25.42;;;12.73;;
75426;SDS011;64007;50.632;13.700;2023-11-19T13:03:46;24.80;;;11.60;;
75426;SDS011;64007;50.632;13.700;2023-11-19T13:06:14;26.13;;;12.88;;
75426;SDS011;64007;50.632;13.700;2023-11-19T13:08:41;25.25;;;12.55;;
75426;SDS011;64007;50.632;13.700;2023-11-19T13:11:11;22.38;;;11.55;;
75426;SDS011;64007;50.632;13.700;2023-11-19T13:13:57;27.65;;;11.98;;
75426;SDS011;64007;50.632;13.700;2023-11-19T13:16:25;20.67;;;11.32;;
75426;SDS011;64007;50.632;13.700;2023-11-19T13:18:52;23.02;;;10.57;;
75426;SDS011;64007;50.632;13.700;2023-11-19T13:21:17;22.20;;;10.93;;
75426;SDS011;64007;50.632;13.700;2023-11-19T13:23:44;23.05;;;10.93;;
75426;SDS011;64007;50.632;13.700;2023-11-19T13:26:10;18.17;;;9.50;;
75426;SDS011;64007;50.632;13.700;2023-11-19T13:28:37;23.40;;;10.50;;
75426;SDS011;64007;50.632;13.700;2023-11-19T13:31:03;33.65;;;14.60;;
75426;SDS011;64007;50.632;13.700;2023-11-19T13:33:29;33.78;;;13.90;;
75426;SDS011;64007;50.632;13.700;2023-11-19T13:35:55;26.73;;;12.32;;
75426;SDS011;64007;50.632;13.700;2023-11-19T13:38:22;20.25;;;11.50;;
75426;SDS011;64007;50.632;13.700;2023-11-19T13:40:49;25.15;;;11.15;;
75426;SDS011;64007;50.632;13.700;2023-11-19T13:43:15;25.23;;;12.82;;
75426;SDS011;64007;50.632;13.700;2023-11-19T13:45:41;28.65;;;14.02;;
75426;SDS011;64007;50.632;13.700;2023-11-19T13:48:06;29.67;;;14.02;;
75426;SDS011;64007;50.632;13.700;2023-11-19T13:50:32;31.83;;;15.70;;
75426;SDS011;64007;50.632;13.700;2023-11-19T13:52:59;34.28;;;15.35;;
75426;SDS011;64007;50.632;13.700;2023-11-19T13:55:25;32.38;;;17.13;;
75426;SDS011;64007;50.632;13.700;2023-11-19T13:57:51;29.85;;;14.20;;
75426;SDS011;64007;50.632;13.700;2023-11-19T14:00:17;37.88;;;17.85;;
75426;SDS011;64007;50.632;13.700;2023-11-19T14:02:47;34.05;;;16.58;;
75426;SDS011;64007;50.632;13.700;2023-11-19T14:05:13;41.97;;;18.10;;
75426;SDS011;64007;50.632;13.700;2023-11-19T14:07:40;40.45;;;19.15;;
75426;SDS011;64007;50.632;13.700;2023-11-19T14:10:07;36.95;;;17.45;;
75426;SDS011;64007;50.632;13.700;2023-11-19T14:12:38;30.05;;;16.77;;
75426;SDS011;64007;50.632;13.700;2023-11-19T14:15:04;30.45;;;15.77;;
75426;SDS011;64007;50.632;13.700;2023-11-19T14:17:38;36.13;;;15.77;;
75426;SDS011;64007;50.632;13.700;2023-11-19T14:20:04;24.17;;;13.82;;
75426;SDS011;64007;50.632;13.700;2023-11-19T14:22:39;23.33;;;12.75;;
75426;SDS011;64007;50.632;13.700;2023-11-19T14:25:05;24.90;;;13.70;;
75426;SDS011;64007;50.632;13.700;2023-11-19T14:27:38;23.75;;;12.93;;
75426;SDS011;64007;50.632;13.700;2023-11-19T14:30:05;23.10;;;13.15;;
75426;SDS011;64007;50.632;13.700;2023-11-19T14:32:36;25.17;;;13.90;;
75426;SDS011;64007;50.632;13.700;2023-11-19T14:35:03;23.65;;;13.27;;
75426;SDS011;64007;50.632;13.700;2023-11-19T14:37:33;20.20;;;11.27;;
75426;SDS011;64007;50.632;13.700;2023-11-19T14:39:59;24.15;;;10.93;;
75426;SDS011;64007;50.632;13.700;2023-11-19T14:42:26;21.20;;;10.85;;
75426;SDS011;64007;50.632;13.700;2023-11-19T14:44:52;19.10;;;9.73;;
75426;SDS011;64007;50.632;13.700;2023-11-19T14:47:18;19.20;;;10.30;;
75426;SDS011;64007;50.632;13.700;2023-11-19T14:49:44;18.27;;;9.90;;